Terminal Aerodrome Forecast
Issued by NWS

Home | Current Version | Previous Version | Text Only | Print | Product List | Glossary On
Versions: 1 2 3 4 5 6 7 8 9 10 11 12 13 14 15 16 17 18 19
000
FTAK31 PAJN 121100
TAFAYA
TAF
PAYA 121134Z 1212/1312 09005KT P6SM -RA OVC020
      TEMPO 1212/1216 2SM -RA BR FEW005 OVC012
     FM122100 12006KT 4SM -RA BR SCT008 OVC015
     FM130700 00000KT 2SM -RA BR FEW003 BKN008 OVC012
      AMD LTD TO CLD VIS AND WIND 1301/1310=

USA.gov is the U.S. government's official web portal to all federal, state and local government web resources and services.